sensor_id;sensor_type;location;lat;lon;timestamp;P1;durP1;ratioP1;P2;durP2;ratioP2
17812;SDS011;9030;50.792;8.320;2023-03-23T00:01:12;9.53;;;2.93;;
17812;SDS011;9030;50.792;8.320;2023-03-23T00:03:44;4.67;;;2.07;;
17812;SDS011;9030;50.792;8.320;2023-03-23T00:06:12;9.70;;;2.57;;
17812;SDS011;9030;50.792;8.320;2023-03-23T00:08:44;6.00;;;2.13;;
17812;SDS011;9030;50.792;8.320;2023-03-23T00:11:12;8.50;;;2.40;;
17812;SDS011;9030;50.792;8.320;2023-03-23T00:13:40;7.23;;;2.33;;
17812;SDS011;9030;50.792;8.320;2023-03-23T00:16:09;6.27;;;2.70;;
17812;SDS011;9030;50.792;8.320;2023-03-23T00:18:42;7.03;;;2.83;;
17812;SDS011;9030;50.792;8.320;2023-03-23T00:21:10;9.03;;;2.47;;
17812;SDS011;9030;50.792;8.320;2023-03-23T00:23:37;8.90;;;2.97;;
17812;SDS011;9030;50.792;8.320;2023-03-23T00:26:05;6.87;;;2.33;;
17812;SDS011;9030;50.792;8.320;2023-03-23T00:28:33;8.67;;;2.50;;
17812;SDS011;9030;50.792;8.320;2023-03-23T00:31:15;3.53;;;2.20;;
17812;SDS011;9030;50.792;8.320;2023-03-23T00:33:41;8.17;;;2.10;;
17812;SDS011;9030;50.792;8.320;2023-03-23T00:36:09;7.63;;;3.70;;
17812;SDS011;9030;50.792;8.320;2023-03-23T00:38:37;7.13;;;1.97;;
17812;SDS011;9030;50.792;8.320;2023-03-23T00:41:06;4.00;;;1.43;;
17812;SDS011;9030;50.792;8.320;2023-03-23T00:43:36;7.23;;;2.17;;
17812;SDS011;9030;50.792;8.320;2023-03-23T00:46:04;4.27;;;1.50;;
17812;SDS011;9030;50.792;8.320;2023-03-23T00:48:35;5.83;;;2.00;;
17812;SDS011;9030;50.792;8.320;2023-03-23T00:51:06;6.47;;;1.67;;
17812;SDS011;9030;50.792;8.320;2023-03-23T00:53:36;5.83;;;1.70;;
17812;SDS011;9030;50.792;8.320;2023-03-23T00:56:04;2.50;;;1.13;;
17812;SDS011;9030;50.792;8.320;2023-03-23T00:58:33;3.57;;;1.90;;
17812;SDS011;9030;50.792;8.320;2023-03-23T01:01:00;4.30;;;1.60;;
17812;SDS011;9030;50.792;8.320;2023-03-23T01:03:27;4.67;;;1.50;;
17812;SDS011;9030;50.792;8.320;2023-03-23T01:05:54;7.30;;;1.87;;
17812;SDS011;9030;50.792;8.320;2023-03-23T01:08:22;5.57;;;1.83;;
17812;SDS011;9030;50.792;8.320;2023-03-23T01:11:01;3.60;;;1.43;;
17812;SDS011;9030;50.792;8.320;2023-03-23T01:13:31;8.93;;;2.67;;
17812;SDS011;9030;50.792;8.320;2023-03-23T01:15:58;8.27;;;1.90;;
17812;SDS011;9030;50.792;8.320;2023-03-23T01:18:25;5.80;;;2.33;;
17812;SDS011;9030;50.792;8.320;2023-03-23T01:20:52;3.93;;;1.90;;
17812;SDS011;9030;50.792;8.320;2023-03-23T01:23:18;7.10;;;1.90;;
17812;SDS011;9030;50.792;8.320;2023-03-23T01:25:45;5.57;;;2.00;;
17812;SDS011;9030;50.792;8.320;2023-03-23T01:28:12;4.00;;;2.00;;
17812;SDS011;9030;50.792;8.320;2023-03-23T01:30:40;5.77;;;2.03;;
17812;SDS011;9030;50.792;8.320;2023-03-23T01:33:07;4.33;;;1.40;;
17812;SDS011;9030;50.792;8.320;2023-03-23T01:35:36;6.23;;;1.67;;
17812;SDS011;9030;50.792;8.320;2023-03-23T01:38:03;6.10;;;1.97;;
17812;SDS011;9030;50.792;8.320;2023-03-23T01:40:30;5.13;;;2.23;;
17812;SDS011;9030;50.792;8.320;2023-03-23T01:42:57;3.47;;;1.67;;
17812;SDS011;9030;50.792;8.320;2023-03-23T01:45:28;5.67;;;1.90;;
17812;SDS011;9030;50.792;8.320;2023-03-23T01:48:05;5.77;;;1.80;;
17812;SDS011;9030;50.792;8.320;2023-03-23T01:50:36;6.07;;;2.43;;
17812;SDS011;9030;50.792;8.320;2023-03-23T01:53:07;3.83;;;1.67;;
17812;SDS011;9030;50.792;8.320;2023-03-23T01:55:36;6.13;;;2.10;;
17812;SDS011;9030;50.792;8.320;2023-03-23T01:58:07;5.97;;;2.53;;
17812;SDS011;9030;50.792;8.320;2023-03-23T02:00:35;4.97;;;1.90;;
17812;SDS011;9030;50.792;8.320;2023-03-23T02:03:06;5.17;;;1.43;;
17812;SDS011;9030;50.792;8.320;2023-03-23T02:05:37;5.10;;;1.70;;
17812;SDS011;9030;50.792;8.320;2023-03-23T02:08:06;4.30;;;1.97;;
17812;SDS011;9030;50.792;8.320;2023-03-23T02:10:35;6.03;;;1.83;;
17812;SDS011;9030;50.792;8.320;2023-03-23T02:13:03;4.13;;;1.43;;
17812;SDS011;9030;50.792;8.320;2023-03-23T02:15:34;4.70;;;1.80;;
17812;SDS011;9030;50.792;8.320;2023-03-23T02:18:10;7.03;;;2.10;;
17812;SDS011;9030;50.792;8.320;2023-03-23T02:20:52;5.30;;;1.67;;
17812;SDS011;9030;50.792;8.320;2023-03-23T02:24:04;3.17;;;1.73;;
17812;SDS011;9030;50.792;8.320;2023-03-23T02:26:53;4.00;;;1.97;;
17812;SDS011;9030;50.792;8.320;2023-03-23T02:35:19;5.03;;;1.93;;
17812;SDS011;9030;50.792;8.320;2023-03-23T02:37:48;4.90;;;2.10;;
17812;SDS011;9030;50.792;8.320;2023-03-23T02:40:19;5.67;;;2.07;;
17812;SDS011;9030;50.792;8.320;2023-03-23T02:42:50;7.60;;;2.17;;
17812;SDS011;9030;50.792;8.320;2023-03-23T02:45:20;3.30;;;1.67;;
17812;SDS011;9030;50.792;8.320;2023-03-23T02:47:50;7.20;;;1.80;;
17812;SDS011;9030;50.792;8.320;2023-03-23T02:50:21;7.90;;;1.83;;
17812;SDS011;9030;50.792;8.320;2023-03-23T02:52:50;3.63;;;1.87;;
17812;SDS011;9030;50.792;8.320;2023-03-23T02:55:20;6.13;;;2.50;;
17812;SDS011;9030;50.792;8.320;2023-03-23T02:57:49;4.17;;;1.80;;
17812;SDS011;9030;50.792;8.320;2023-03-23T03:00:18;6.90;;;2.60;;
17812;SDS011;9030;50.792;8.320;2023-03-23T03:02:46;5.47;;;2.10;;
17812;SDS011;9030;50.792;8.320;2023-03-23T03:05:18;4.33;;;2.00;;
17812;SDS011;9030;50.792;8.320;2023-03-23T03:07:58;6.27;;;2.23;;
17812;SDS011;9030;50.792;8.320;2023-03-23T03:10:34;6.47;;;2.33;;
17812;SDS011;9030;50.792;8.320;2023-03-23T03:13:09;6.40;;;2.67;;
17812;SDS011;9030;50.792;8.320;2023-03-23T03:15:42;5.90;;;2.73;;
17812;SDS011;9030;50.792;8.320;2023-03-23T03:18:14;7.70;;;2.50;;
17812;SDS011;9030;50.792;8.320;2023-03-23T03:20:48;6.67;;;2.43;;
17812;SDS011;9030;50.792;8.320;2023-03-23T03:23:18;5.67;;;2.33;;
17812;SDS011;9030;50.792;8.320;2023-03-23T03:25:47;9.80;;;2.70;;
17812;SDS011;9030;50.792;8.320;2023-03-23T03:28:16;9.73;;;2.23;;
17812;SDS011;9030;50.792;8.320;2023-03-23T03:30:47;7.10;;;2.50;;
17812;SDS011;9030;50.792;8.320;2023-03-23T03:33:18;8.87;;;2.83;;
17812;SDS011;9030;50.792;8.320;2023-03-23T03:35:46;8.57;;;3.10;;
17812;SDS011;9030;50.792;8.320;2023-03-23T03:38:14;10.67;;;2.80;;
17812;SDS011;9030;50.792;8.320;2023-03-23T03:40:41;7.20;;;3.10;;
17812;SDS011;9030;50.792;8.320;2023-03-23T03:43:08;7.20;;;2.93;;
17812;SDS011;9030;50.792;8.320;2023-03-23T03:45:35;5.80;;;2.33;;
17812;SDS011;9030;50.792;8.320;2023-03-23T03:48:01;6.77;;;2.37;;
17812;SDS011;9030;50.792;8.320;2023-03-23T03:50:29;10.43;;;3.50;;
17812;SDS011;9030;50.792;8.320;2023-03-23T03:52:58;7.90;;;2.47;;
17812;SDS011;9030;50.792;8.320;2023-03-23T03:55:25;11.23;;;5.07;;
17812;SDS011;9030;50.792;8.320;2023-03-23T03:57:53;9.70;;;3.40;;
17812;SDS011;9030;50.792;8.320;2023-03-23T04:00:19;10.23;;;4.03;;
17812;SDS011;9030;50.792;8.320;2023-03-23T04:02:48;11.00;;;4.13;;
17812;SDS011;9030;50.792;8.320;2023-03-23T04:05:20;7.07;;;3.27;;
17812;SDS011;9030;50.792;8.320;2023-03-23T04:07:47;10.43;;;4.40;;
17812;SDS011;9030;50.792;8.320;2023-03-23T04:10:18;6.77;;;3.30;;
17812;SDS011;9030;50.792;8.320;2023-03-23T04:12:47;7.87;;;3.83;;
17812;SDS011;9030;50.792;8.320;2023-03-23T04:15:14;9.20;;;3.90;;
17812;SDS011;9030;50.792;8.320;2023-03-23T04:17:41;8.23;;;2.77;;
17812;SDS011;9030;50.792;8.320;2023-03-23T04:20:08;8.50;;;3.07;;
17812;SDS011;9030;50.792;8.320;2023-03-23T04:22:40;9.33;;;4.03;;
17812;SDS011;9030;50.792;8.320;2023-03-23T04:25:09;10.43;;;3.40;;
17812;SDS011;9030;50.792;8.320;2023-03-23T04:27:39;7.13;;;2.90;;
17812;SDS011;9030;50.792;8.320;2023-03-23T04:30:08;6.90;;;3.03;;
17812;SDS011;9030;50.792;8.320;2023-03-23T04:32:36;7.53;;;2.70;;
17812;SDS011;9030;50.792;8.320;2023-03-23T04:35:07;9.23;;;2.47;;
17812;SDS011;9030;50.792;8.320;2023-03-23T04:37:34;5.73;;;2.67;;
17812;SDS011;9030;50.792;8.320;2023-03-23T04:40:01;5.77;;;2.77;;
17812;SDS011;9030;50.792;8.320;2023-03-23T04:42:35;10.07;;;4.17;;
17812;SDS011;9030;50.792;8.320;2023-03-23T04:45:04;5.80;;;2.50;;
17812;SDS011;9030;50.792;8.320;2023-03-23T04:47:32;11.33;;;4.20;;
17812;SDS011;9030;50.792;8.320;2023-03-23T04:50:05;7.33;;;3.03;;
17812;SDS011;9030;50.792;8.320;2023-03-23T04:52:33;5.50;;;2.60;;
17812;SDS011;9030;50.792;8.320;2023-03-23T04:55:02;8.57;;;3.20;;
17812;SDS011;9030;50.792;8.320;2023-03-23T04:57:30;6.40;;;2.50;;
17812;SDS011;9030;50.792;8.320;2023-03-23T04:59:58;6.20;;;2.60;;
17812;SDS011;9030;50.792;8.320;2023-03-23T05:02:26;6.70;;;2.87;;
17812;SDS011;9030;50.792;8.320;2023-03-23T05:04:55;5.87;;;2.53;;
17812;SDS011;9030;50.792;8.320;2023-03-23T05:07:22;3.30;;;1.97;;
17812;SDS011;9030;50.792;8.320;2023-03-23T05:09:49;6.33;;;3.03;;
17812;SDS011;9030;50.792;8.320;2023-03-23T05:12:16;7.30;;;2.67;;
17812;SDS011;9030;50.792;8.320;2023-03-23T05:14:42;8.40;;;3.23;;
17812;SDS011;9030;50.792;8.320;2023-03-23T05:17:09;6.73;;;2.77;;
17812;SDS011;9030;50.792;8.320;2023-03-23T05:19:39;6.97;;;3.00;;
17812;SDS011;9030;50.792;8.320;2023-03-23T05:22:08;9.23;;;3.67;;
17812;SDS011;9030;50.792;8.320;2023-03-23T05:24:37;10.07;;;2.83;;
17812;SDS011;9030;50.792;8.320;2023-03-23T05:27:04;7.30;;;2.70;;
17812;SDS011;9030;50.792;8.320;2023-03-23T05:29:33;11.40;;;2.97;;
17812;SDS011;9030;50.792;8.320;2023-03-23T05:32:00;6.47;;;2.87;;
17812;SDS011;9030;50.792;8.320;2023-03-23T05:34:28;6.90;;;3.63;;
17812;SDS011;9030;50.792;8.320;2023-03-23T05:36:58;8.13;;;3.37;;
17812;SDS011;9030;50.792;8.320;2023-03-23T05:39:25;9.43;;;4.20;;
17812;SDS011;9030;50.792;8.320;2023-03-23T05:41:52;9.23;;;4.40;;
17812;SDS011;9030;50.792;8.320;2023-03-23T05:44:19;8.40;;;4.03;;
17812;SDS011;9030;50.792;8.320;2023-03-23T05:46:46;9.27;;;3.43;;
17812;SDS011;9030;50.792;8.320;2023-03-23T05:49:14;9.87;;;4.27;;
17812;SDS011;9030;50.792;8.320;2023-03-23T05:51:42;10.80;;;7.47;;
17812;SDS011;9030;50.792;8.320;2023-03-23T05:54:10;9.47;;;4.43;;
17812;SDS011;9030;50.792;8.320;2023-03-23T05:56:37;10.63;;;4.77;;
17812;SDS011;9030;50.792;8.320;2023-03-23T05:59:04;6.83;;;4.30;;
17812;SDS011;9030;50.792;8.320;2023-03-23T06:01:31;6.30;;;3.80;;
17812;SDS011;9030;50.792;8.320;2023-03-23T06:03:58;7.50;;;4.53;;
17812;SDS011;9030;50.792;8.320;2023-03-23T06:06:25;11.70;;;5.47;;
17812;SDS011;9030;50.792;8.320;2023-03-23T06:08:53;11.40;;;7.93;;
17812;SDS011;9030;50.792;8.320;2023-03-23T06:11:21;7.57;;;4.00;;
17812;SDS011;9030;50.792;8.320;2023-03-23T06:13:48;9.13;;;4.27;;
17812;SDS011;9030;50.792;8.320;2023-03-23T06:16:15;11.60;;;4.73;;
17812;SDS011;9030;50.792;8.320;2023-03-23T06:18:41;9.73;;;4.50;;
17812;SDS011;9030;50.792;8.320;2023-03-23T06:21:08;11.03;;;5.77;;
17812;SDS011;9030;50.792;8.320;2023-03-23T06:23:36;7.23;;;4.27;;
17812;SDS011;9030;50.792;8.320;2023-03-23T06:26:04;7.30;;;4.33;;
17812;SDS011;9030;50.792;8.320;2023-03-23T06:28:33;9.53;;;4.87;;
17812;SDS011;9030;50.792;8.320;2023-03-23T06:31:03;6.97;;;4.27;;
17812;SDS011;9030;50.792;8.320;2023-03-23T06:33:31;9.53;;;4.30;;
17812;SDS011;9030;50.792;8.320;2023-03-23T06:35:59;9.47;;;4.87;;
17812;SDS011;9030;50.792;8.320;2023-03-23T06:38:26;8.47;;;4.37;;
17812;SDS011;9030;50.792;8.320;2023-03-23T06:40:53;6.47;;;3.77;;
17812;SDS011;9030;50.792;8.320;2023-03-23T06:43:20;7.83;;;4.27;;
17812;SDS011;9030;50.792;8.320;2023-03-23T06:45:49;8.83;;;4.20;;
17812;SDS011;9030;50.792;8.320;2023-03-23T06:48:17;7.73;;;3.80;;
17812;SDS011;9030;50.792;8.320;2023-03-23T06:50:44;11.27;;;5.93;;
17812;SDS011;9030;50.792;8.320;2023-03-23T06:53:12;7.40;;;4.07;;
17812;SDS011;9030;50.792;8.320;2023-03-23T06:55:42;6.90;;;3.40;;
17812;SDS011;9030;50.792;8.320;2023-03-23T06:58:10;11.17;;;3.40;;
17812;SDS011;9030;50.792;8.320;2023-03-23T07:00:37;5.70;;;2.70;;
17812;SDS011;9030;50.792;8.320;2023-03-23T07:03:06;6.87;;;3.83;;
17812;SDS011;9030;50.792;8.320;2023-03-23T07:05:34;5.97;;;2.73;;
17812;SDS011;9030;50.792;8.320;2023-03-23T07:08:01;7.47;;;3.30;;
17812;SDS011;9030;50.792;8.320;2023-03-23T07:10:28;7.00;;;2.67;;
17812;SDS011;9030;50.792;8.320;2023-03-23T07:12:55;6.00;;;2.97;;
17812;SDS011;9030;50.792;8.320;2023-03-23T07:15:22;7.93;;;4.10;;
17812;SDS011;9030;50.792;8.320;2023-03-23T07:17:49;6.27;;;3.47;;
17812;SDS011;9030;50.792;8.320;2023-03-23T07:20:17;9.53;;;4.23;;
17812;SDS011;9030;50.792;8.320;2023-03-23T07:22:44;7.10;;;3.70;;
17812;SDS011;9030;50.792;8.320;2023-03-23T07:25:10;11.03;;;3.40;;
17812;SDS011;9030;50.792;8.320;2023-03-23T07:27:37;8.83;;;3.87;;
17812;SDS011;9030;50.792;8.320;2023-03-23T07:30:04;8.30;;;3.80;;
17812;SDS011;9030;50.792;8.320;2023-03-23T07:32:32;7.30;;;3.83;;
17812;SDS011;9030;50.792;8.320;2023-03-23T07:34:59;5.43;;;2.77;;
17812;SDS011;9030;50.792;8.320;2023-03-23T07:37:27;8.93;;;3.63;;
17812;SDS011;9030;50.792;8.320;2023-03-23T07:39:54;6.50;;;3.87;;
17812;SDS011;9030;50.792;8.320;2023-03-23T07:42:21;9.03;;;4.80;;
17812;SDS011;9030;50.792;8.320;2023-03-23T07:44:48;11.37;;;6.40;;
17812;SDS011;9030;50.792;8.320;2023-03-23T07:47:15;8.97;;;5.07;;
17812;SDS011;9030;50.792;8.320;2023-03-23T07:49:42;6.57;;;3.00;;
17812;SDS011;9030;50.792;8.320;2023-03-23T07:52:09;7.13;;;3.40;;
17812;SDS011;9030;50.792;8.320;2023-03-23T07:54:37;7.57;;;3.03;;
17812;SDS011;9030;50.792;8.320;2023-03-23T07:57:04;9.50;;;3.80;;
17812;SDS011;9030;50.792;8.320;2023-03-23T07:59:31;9.03;;;4.90;;
17812;SDS011;9030;50.792;8.320;2023-03-23T08:01:58;7.80;;;3.80;;
17812;SDS011;9030;50.792;8.320;2023-03-23T08:04:26;7.30;;;3.33;;
17812;SDS011;9030;50.792;8.320;2023-03-23T08:06:52;8.93;;;3.73;;
17812;SDS011;9030;50.792;8.320;2023-03-23T08:09:19;5.03;;;2.78;;
17812;SDS011;9030;50.792;8.320;2023-03-23T08:11:48;10.17;;;3.63;;
17812;SDS011;9030;50.792;8.320;2023-03-23T08:14:14;7.10;;;2.70;;
17812;SDS011;9030;50.792;8.320;2023-03-23T08:16:41;9.87;;;2.97;;
17812;SDS011;9030;50.792;8.320;2023-03-23T08:19:08;4.45;;;2.33;;
17812;SDS011;9030;50.792;8.320;2023-03-23T08:21:35;4.60;;;2.30;;
17812;SDS011;9030;50.792;8.320;2023-03-23T08:24:03;6.13;;;2.47;;
17812;SDS011;9030;50.792;8.320;2023-03-23T08:26:30;5.47;;;2.40;;
17812;SDS011;9030;50.792;8.320;2023-03-23T08:28:58;10.00;;;3.50;;
17812;SDS011;9030;50.792;8.320;2023-03-23T08:31:25;4.07;;;2.00;;
17812;SDS011;9030;50.792;8.320;2023-03-23T08:33:52;5.43;;;2.23;;
17812;SDS011;9030;50.792;8.320;2023-03-23T08:36:21;8.37;;;3.30;;
17812;SDS011;9030;50.792;8.320;2023-03-23T08:38:48;6.78;;;2.78;;
17812;SDS011;9030;50.792;8.320;2023-03-23T08:41:16;8.45;;;2.55;;
17812;SDS011;9030;50.792;8.320;2023-03-23T08:43:43;8.83;;;2.43;;
17812;SDS011;9030;50.792;8.320;2023-03-23T08:46:11;3.63;;;1.80;;
17812;SDS011;9030;50.792;8.320;2023-03-23T08:48:38;6.90;;;2.90;;
17812;SDS011;9030;50.792;8.320;2023-03-23T08:51:05;6.00;;;2.77;;
17812;SDS011;9030;50.792;8.320;2023-03-23T08:53:33;4.05;;;2.15;;
17812;SDS011;9030;50.792;8.320;2023-03-23T08:56:05;5.93;;;2.50;;
17812;SDS011;9030;50.792;8.320;2023-03-23T08:58:33;7.25;;;2.20;;
17812;SDS011;9030;50.792;8.320;2023-03-23T09:01:00;5.47;;;2.50;;
17812;SDS011;9030;50.792;8.320;2023-03-23T09:03:29;4.55;;;2.53;;
17812;SDS011;9030;50.792;8.320;2023-03-23T09:05:58;7.10;;;2.83;;
17812;SDS011;9030;50.792;8.320;2023-03-23T09:08:26;7.55;;;2.97;;
17812;SDS011;9030;50.792;8.320;2023-03-23T09:10:54;6.05;;;2.20;;
17812;SDS011;9030;50.792;8.320;2023-03-23T09:13:21;5.00;;;2.33;;
17812;SDS011;9030;50.792;8.320;2023-03-23T09:15:48;6.35;;;3.00;;
17812;SDS011;9030;50.792;8.320;2023-03-23T09:18:15;7.73;;;3.07;;
17812;SDS011;9030;50.792;8.320;2023-03-23T09:20:43;9.13;;;2.83;;
17812;SDS011;9030;50.792;8.320;2023-03-23T09:23:11;8.93;;;3.47;;
17812;SDS011;9030;50.792;8.320;2023-03-23T09:25:39;6.47;;;2.30;;
17812;SDS011;9030;50.792;8.320;2023-03-23T09:28:06;7.20;;;3.35;;
17812;SDS011;9030;50.792;8.320;2023-03-23T09:30:33;7.05;;;2.42;;
17812;SDS011;9030;50.792;8.320;2023-03-23T09:33:01;7.50;;;2.72;;
17812;SDS011;9030;50.792;8.320;2023-03-23T09:35:29;5.18;;;2.25;;
17812;SDS011;9030;50.792;8.320;2023-03-23T09:37:57;7.45;;;2.70;;
17812;SDS011;9030;50.792;8.320;2023-03-23T09:40:26;6.53;;;2.50;;
17812;SDS011;9030;50.792;8.320;2023-03-23T09:43:04;8.40;;;3.90;;
17812;SDS011;9030;50.792;8.320;2023-03-23T09:45:55;17.00;;;7.00;;
17812;SDS011;9030;50.792;8.320;2023-03-23T09:48:32;7.07;;;3.47;;
17812;SDS011;9030;50.792;8.320;2023-03-23T09:51:12;6.57;;;3.37;;
17812;SDS011;9030;50.792;8.320;2023-03-23T09:53:54;8.47;;;3.17;;
17812;SDS011;9030;50.792;8.320;2023-03-23T09:56:27;10.20;;;3.40;;
17812;SDS011;9030;50.792;8.320;2023-03-23T09:58:58;6.50;;;2.97;;
17812;SDS011;9030;50.792;8.320;2023-03-23T10:01:30;11.43;;;3.20;;
17812;SDS011;9030;50.792;8.320;2023-03-23T10:04:01;8.82;;;4.82;;
17812;SDS011;9030;50.792;8.320;2023-03-23T10:06:35;9.57;;;3.70;;
17812;SDS011;9030;50.792;8.320;2023-03-23T10:09:04;9.52;;;4.90;;
17812;SDS011;9030;50.792;8.320;2023-03-23T10:11:33;11.57;;;6.20;;
17812;SDS011;9030;50.792;8.320;2023-03-23T10:14:11;17.08;;;9.27;;
17812;SDS011;9030;50.792;8.320;2023-03-23T10:16:50;7.50;;;3.08;;
17812;SDS011;9030;50.792;8.320;2023-03-23T10:19:24;9.85;;;6.28;;
17812;SDS011;9030;50.792;8.320;2023-03-23T10:21:59;6.38;;;3.15;;
17812;SDS011;9030;50.792;8.320;2023-03-23T10:24:31;8.00;;;3.70;;
17812;SDS011;9030;50.792;8.320;2023-03-23T10:27:05;5.40;;;2.20;;
17812;SDS011;9030;50.792;8.320;2023-03-23T10:29:40;8.38;;;4.15;;
17812;SDS011;9030;50.792;8.320;2023-03-23T10:32:12;6.80;;;3.40;;
17812;SDS011;9030;50.792;8.320;2023-03-23T10:34:41;9.93;;;3.30;;
17812;SDS011;9030;50.792;8.320;2023-03-23T10:37:12;4.55;;;2.20;;
17812;SDS011;9030;50.792;8.320;2023-03-23T10:39:46;6.32;;;2.53;;
17812;SDS011;9030;50.792;8.320;2023-03-23T10:42:26;3.97;;;2.25;;
17812;SDS011;9030;50.792;8.320;2023-03-23T10:44:54;5.78;;;2.33;;
17812;SDS011;9030;50.792;8.320;2023-03-23T10:47:24;4.32;;;2.10;;
17812;SDS011;9030;50.792;8.320;2023-03-23T10:49:51;5.30;;;2.35;;
17812;SDS011;9030;50.792;8.320;2023-03-23T10:52:27;5.03;;;1.92;;
17812;SDS011;9030;50.792;8.320;2023-03-23T10:55:01;6.80;;;2.95;;
17812;SDS011;9030;50.792;8.320;2023-03-23T10:57:31;5.15;;;2.13;;
17812;SDS011;9030;50.792;8.320;2023-03-23T11:00:00;7.50;;;2.90;;
17812;SDS011;9030;50.792;8.320;2023-03-23T11:02:32;10.30;;;4.22;;
17812;SDS011;9030;50.792;8.320;2023-03-23T11:05:04;9.80;;;3.88;;
17812;SDS011;9030;50.792;8.320;2023-03-23T11:07:40;8.00;;;2.78;;
17812;SDS011;9030;50.792;8.320;2023-03-23T11:10:22;6.17;;;2.50;;
17812;SDS011;9030;50.792;8.320;2023-03-23T11:12:50;3.60;;;2.30;;
17812;SDS011;9030;50.792;8.320;2023-03-23T11:15:28;6.20;;;2.25;;
17812;SDS011;9030;50.792;8.320;2023-03-23T11:18:00;6.05;;;2.50;;
17812;SDS011;9030;50.792;8.320;2023-03-23T11:20:29;7.43;;;2.13;;
17812;SDS011;9030;50.792;8.320;2023-03-23T11:23:10;5.15;;;2.22;;
17812;SDS011;9030;50.792;8.320;2023-03-23T11:25:57;5.93;;;2.20;;
17812;SDS011;9030;50.792;8.320;2023-03-23T11:28:28;4.90;;;1.70;;
17812;SDS011;9030;50.792;8.320;2023-03-23T11:30:57;6.72;;;2.58;;
17812;SDS011;9030;50.792;8.320;2023-03-23T11:33:28;5.80;;;2.47;;
17812;SDS011;9030;50.792;8.320;2023-03-23T11:35:56;3.65;;;1.60;;
17812;SDS011;9030;50.792;8.320;2023-03-23T11:38:23;3.13;;;1.20;;
17812;SDS011;9030;50.792;8.320;2023-03-23T11:40:53;6.38;;;1.73;;
17812;SDS011;9030;50.792;8.320;2023-03-23T11:43:23;3.20;;;1.30;;
17812;SDS011;9030;50.792;8.320;2023-03-23T11:45:54;3.93;;;1.63;;
17812;SDS011;9030;50.792;8.320;2023-03-23T11:48:29;4.97;;;1.53;;
17812;SDS011;9030;50.792;8.320;2023-03-23T11:51:04;6.68;;;1.92;;
17812;SDS011;9030;50.792;8.320;2023-03-23T11:53:37;3.97;;;1.80;;
17812;SDS011;9030;50.792;8.320;2023-03-23T11:56:15;4.72;;;2.13;;
17812;SDS011;9030;50.792;8.320;2023-03-23T11:58:50;4.35;;;1.33;;
17812;SDS011;9030;50.792;8.320;2023-03-23T12:01:21;3.35;;;1.48;;
17812;SDS011;9030;50.792;8.320;2023-03-23T12:04:03;5.80;;;1.92;;
17812;SDS011;9030;50.792;8.320;2023-03-23T12:06:55;3.38;;;1.67;;
17812;SDS011;9030;50.792;8.320;2023-03-23T12:09:36;6.22;;;1.83;;
17812;SDS011;9030;50.792;8.320;2023-03-23T12:12:12;2.47;;;0.98;;
17812;SDS011;9030;50.792;8.320;2023-03-23T12:14:46;2.30;;;1.27;;
17812;SDS011;9030;50.792;8.320;2023-03-23T12:17:23;2.97;;;1.60;;
17812;SDS011;9030;50.792;8.320;2023-03-23T12:20:00;6.00;;;2.28;;
17812;SDS011;9030;50.792;8.320;2023-03-23T12:22:42;3.08;;;1.48;;
17812;SDS011;9030;50.792;8.320;2023-03-23T12:25:22;2.03;;;1.35;;
17812;SDS011;9030;50.792;8.320;2023-03-23T12:28:07;3.40;;;1.52;;
17812;SDS011;9030;50.792;8.320;2023-03-23T12:30:45;4.22;;;1.60;;
17812;SDS011;9030;50.792;8.320;2023-03-23T12:33:21;2.55;;;1.50;;
17812;SDS011;9030;50.792;8.320;2023-03-23T12:35:58;4.85;;;1.75;;
17812;SDS011;9030;50.792;8.320;2023-03-23T12:38:38;5.78;;;1.90;;
17812;SDS011;9030;50.792;8.320;2023-03-23T12:41:17;3.70;;;1.20;;
17812;SDS011;9030;50.792;8.320;2023-03-23T12:43:49;6.47;;;2.50;;
17812;SDS011;9030;50.792;8.320;2023-03-23T12:46:24;8.32;;;1.92;;
17812;SDS011;9030;50.792;8.320;2023-03-23T12:49:18;2.60;;;1.33;;
17812;SDS011;9030;50.792;8.320;2023-03-23T12:51:49;5.43;;;2.20;;
17812;SDS011;9030;50.792;8.320;2023-03-23T12:54:23;4.18;;;1.70;;
17812;SDS011;9030;50.792;8.320;2023-03-23T12:56:55;5.97;;;1.85;;
17812;SDS011;9030;50.792;8.320;2023-03-23T12:59:30;7.90;;;2.22;;
17812;SDS011;9030;50.792;8.320;2023-03-23T13:02:05;5.70;;;2.65;;
17812;SDS011;9030;50.792;8.320;2023-03-23T13:04:40;6.15;;;1.20;;
17812;SDS011;9030;50.792;8.320;2023-03-23T13:07:10;5.68;;;1.88;;
17812;SDS011;9030;50.792;8.320;2023-03-23T13:09:45;3.33;;;1.27;;
17812;SDS011;9030;50.792;8.320;2023-03-23T13:12:15;5.32;;;1.13;;
17812;SDS011;9030;50.792;8.320;2023-03-23T13:14:45;4.75;;;1.10;;
17812;SDS011;9030;50.792;8.320;2023-03-23T13:17:22;6.18;;;1.40;;
17812;SDS011;9030;50.792;8.320;2023-03-23T13:23:08;6.90;;;2.53;;
17812;SDS011;9030;50.792;8.320;2023-03-23T13:25:45;5.72;;;1.33;;
17812;SDS011;9030;50.792;8.320;2023-03-23T13:28:15;5.00;;;1.20;;
17812;SDS011;9030;50.792;8.320;2023-03-23T13:30:55;4.55;;;1.20;;
17812;SDS011;9030;50.792;8.320;2023-03-23T13:33:28;5.53;;;1.50;;
17812;SDS011;9030;50.792;8.320;2023-03-23T13:36:01;5.00;;;1.63;;
17812;SDS011;9030;50.792;8.320;2023-03-23T13:38:35;5.00;;;1.52;;
17812;SDS011;9030;50.792;8.320;2023-03-23T13:41:06;9.45;;;3.13;;
17812;SDS011;9030;50.792;8.320;2023-03-23T13:43:36;7.20;;;1.33;;
17812;SDS011;9030;50.792;8.320;2023-03-23T13:46:08;3.15;;;1.52;;
17812;SDS011;9030;50.792;8.320;2023-03-23T13:48:43;2.95;;;1.08;;
17812;SDS011;9030;50.792;8.320;2023-03-23T13:51:25;1.30;;;0.65;;
17812;SDS011;9030;50.792;8.320;2023-03-23T13:54:14;3.55;;;1.10;;
17812;SDS011;9030;50.792;8.320;2023-03-23T13:56:50;2.85;;;1.23;;
17812;SDS011;9030;50.792;8.320;2023-03-23T13:59:28;5.82;;;1.25;;
17812;SDS011;9030;50.792;8.320;2023-03-23T14:05:08;2.70;;;1.10;;
17812;SDS011;9030;50.792;8.320;2023-03-23T14:07:51;3.35;;;1.10;;
17812;SDS011;9030;50.792;8.320;2023-03-23T14:10:24;3.42;;;1.30;;
17812;SDS011;9030;50.792;8.320;2023-03-23T14:12:57;3.92;;;1.02;;
17812;SDS011;9030;50.792;8.320;2023-03-23T14:15:28;7.00;;;2.08;;
17812;SDS011;9030;50.792;8.320;2023-03-23T14:17:56;4.70;;;1.10;;
17812;SDS011;9030;50.792;8.320;2023-03-23T14:20:26;4.85;;;1.25;;
17812;SDS011;9030;50.792;8.320;2023-03-23T14:22:57;3.03;;;1.20;;
17812;SDS011;9030;50.792;8.320;2023-03-23T14:25:26;4.00;;;1.35;;
17812;SDS011;9030;50.792;8.320;2023-03-23T14:27:55;4.10;;;1.27;;
17812;SDS011;9030;50.792;8.320;2023-03-23T14:30:23;5.65;;;1.58;;
17812;SDS011;9030;50.792;8.320;2023-03-23T14:32:51;5.57;;;1.77;;
17812;SDS011;9030;50.792;8.320;2023-03-23T14:35:21;4.10;;;1.55;;
17812;SDS011;9030;50.792;8.320;2023-03-23T14:37:53;5.43;;;1.27;;
17812;SDS011;9030;50.792;8.320;2023-03-23T14:40:21;6.03;;;1.30;;
17812;SDS011;9030;50.792;8.320;2023-03-23T14:42:49;5.15;;;1.40;;
17812;SDS011;9030;50.792;8.320;2023-03-23T14:45:19;4.70;;;1.48;;
17812;SDS011;9030;50.792;8.320;2023-03-23T14:47:48;5.93;;;1.17;;
17812;SDS011;9030;50.792;8.320;2023-03-23T14:50:24;7.50;;;1.60;;
17812;SDS011;9030;50.792;8.320;2023-03-23T14:52:57;3.28;;;1.25;;
17812;SDS011;9030;50.792;8.320;2023-03-23T14:55:26;3.42;;;1.17;;
17812;SDS011;9030;50.792;8.320;2023-03-23T14:57:56;7.15;;;1.70;;
17812;SDS011;9030;50.792;8.320;2023-03-23T15:00:33;7.07;;;2.10;;
17812;SDS011;9030;50.792;8.320;2023-03-23T15:03:03;6.38;;;1.65;;
17812;SDS011;9030;50.792;8.320;2023-03-23T15:05:32;2.83;;;1.20;;
17812;SDS011;9030;50.792;8.320;2023-03-23T15:08:05;3.88;;;1.48;;
17812;SDS011;9030;50.792;8.320;2023-03-23T15:10:34;5.45;;;1.30;;
17812;SDS011;9030;50.792;8.320;2023-03-23T15:13:01;4.90;;;1.90;;
17812;SDS011;9030;50.792;8.320;2023-03-23T15:15:28;3.85;;;1.35;;
17812;SDS011;9030;50.792;8.320;2023-03-23T15:17:57;5.65;;;1.70;;
17812;SDS011;9030;50.792;8.320;2023-03-23T15:20:26;6.90;;;1.58;;
17812;SDS011;9030;50.792;8.320;2023-03-23T15:22:55;3.35;;;1.25;;
17812;SDS011;9030;50.792;8.320;2023-03-23T15:25:28;3.55;;;1.27;;
17812;SDS011;9030;50.792;8.320;2023-03-23T15:27:57;6.57;;;1.80;;
17812;SDS011;9030;50.792;8.320;2023-03-23T15:30:33;7.28;;;1.98;;
17812;SDS011;9030;50.792;8.320;2023-03-23T15:33:03;6.28;;;1.92;;